Maurertown, Virginia
Current Conditions -  °F | °C
As of 5:35 AM on Wednesday 22 Oct 2014 (Local Time) from KFRR Reporting Station
Overcast Overcast  
Wind Chill: 10°   Ceiling: 2700
Heat Index: 10°   Visibility: 10mi
Dew Point:   Wind: 9mph
Humidity: 87%   Direction: 310°NW
Pressure: 29.92"   Gusts: NA
Location:  38.93°N, 78.46°W
Report Text: KFRR 220935Z AUTO 31008KT 10SM OVC027 10/08 A2992 RMK AO1
Loading
Personal Weather Stations






























Interactive Weather Map
Tropical Storm Tracking
New forecast layout! Learn more

10-Day Weather Forecast

Advertisements
Track Severe Weather on mobile